Time;durP1;ratioP1;P1;durP2;ratioP2;P2;SDS_P1;SDS_P2;PMS_P1;PMS_P2;Temp;Humidity;BMP_temperature;BMP_pressure;BME280_temperature;BME280_humidity;BME280_pressure;Samples;Min_cycle;Max_cycle;Signal;HPM_P1;HPM_P2
2023/12/01 00:02:26;;;;;;;22.53;16.47;;;-1.00;99.90;;;;;;5030654;28;20468;-78
2023/12/01 00:04:56;;;;;;;20.10;15.90;;;-1.00;99.90;;;;;;5030548;28;20483;-78
2023/12/01 00:07:24;;;;;;;23.63;17.67;;;-1.00;99.90;;;;;;5014169;28;20817;-78
2023/12/01 00:09:53;;;;;;;24.67;16.97;;;-0.90;99.90;;;;;;5014667;28;20455;-78
2023/12/01 00:12:21;;;;;;;18.63;13.50;;;-1.00;99.90;;;;;;5030788;28;20476;-78
2023/12/01 00:14:50;;;;;;;23.03;15.97;;;-1.00;99.90;;;;;;5015919;28;20472;-78
2023/12/01 00:17:18;;;;;;;20.47;16.60;;;-1.00;99.90;;;;;;5014164;28;20447;-78
2023/12/01 00:19:47;;;;;;;23.40;17.00;;;-1.00;99.90;;;;;;5015141;28;20436;-78
2023/12/01 00:22:17;;;;;;;22.30;16.37;;;-1.00;99.90;;;;;;5014261;28;20562;-78
2023/12/01 00:24:45;;;;;;;23.97;16.73;;;-1.10;99.90;;;;;;5015676;28;20436;-78
2023/12/01 00:27:14;;;;;;;22.13;14.83;;;-1.00;99.90;;;;;;5013583;28;20498;-78
2023/12/01 00:29:42;;;;;;;27.50;17.07;;;-1.00;99.90;;;;;;5030444;28;20454;-78
2023/12/01 00:32:11;;;;;;;27.20;18.73;;;-1.00;99.90;;;;;;5030250;28;20468;-78
2023/12/01 00:34:40;;;;;;;25.83;16.47;;;-1.00;99.90;;;;;;5030289;28;20829;-78
2023/12/01 00:37:09;;;;;;;23.77;17.07;;;-1.00;99.90;;;;;;5013625;28;20452;-78
2023/12/01 00:39:38;;;;;;;26.23;18.13;;;-1.00;99.90;;;;;;5013610;28;20472;-78
2023/12/01 00:42:07;;;;;;;31.47;21.97;;;-1.00;99.90;;;;;;5013296;28;20472;-78
2023/12/01 00:44:36;;;;;;;27.77;20.00;;;-1.00;99.90;;;;;;5012731;28;20546;-79
2023/12/01 00:47:04;;;;;;;30.50;21.63;;;-1.00;99.90;;;;;;5012832;28;20455;-78
2023/12/01 00:49:33;;;;;;;28.53;21.00;;;-1.00;99.90;;;;;;5014776;28;20468;-79
2023/12/01 00:52:02;;;;;;;29.27;20.93;;;-1.00;99.90;;;;;;5029786;28;20562;-78
2023/12/01 00:54:31;;;;;;;29.90;21.43;;;-1.00;99.90;;;;;;5029843;28;20462;-78
2023/12/01 00:57:02;;;;;;;32.93;22.13;;;-1.00;99.90;;;;;;5030868;28;20551;-78
2023/12/01 00:59:30;;;;;;;30.83;22.63;;;-1.00;99.90;;;;;;5013998;28;20460;-78
2023/12/01 01:01:59;;;;;;;28.20;20.93;;;-1.00;99.90;;;;;;5012327;28;20503;-78
2023/12/01 01:04:27;;;;;;;29.77;21.97;;;-1.00;99.90;;;;;;5014299;28;20456;-78
2023/12/01 01:06:56;;;;;;;29.97;21.40;;;-1.00;99.90;;;;;;5013992;28;20946;-79
2023/12/01 01:09:24;;;;;;;29.50;20.80;;;-1.00;99.90;;;;;;5014131;28;20451;-78
2023/12/01 01:11:53;;;;;;;30.60;21.53;;;-0.90;99.90;;;;;;5014244;28;20467;-78
2023/12/01 01:14:22;;;;;;;25.47;19.40;;;-0.90;99.90;;;;;;5030158;28;20949;-78
2023/12/01 01:16:51;;;;;;;26.60;19.13;;;-0.90;99.90;;;;;;5014909;28;20477;-78
2023/12/01 01:19:19;;;;;;;28.00;20.77;;;-1.00;99.90;;;;;;5030110;28;21057;-79
2023/12/01 01:21:48;;;;;;;27.37;20.10;;;-1.00;99.90;;;;;;5030325;28;20448;-78
2023/12/01 01:24:17;;;;;;;29.90;20.00;;;-1.00;99.90;;;;;;5013744;28;20460;-79
2023/12/01 01:26:46;;;;;;;27.13;20.80;;;-1.00;99.90;;;;;;5013852;28;20539;-78
2023/12/01 01:29:14;;;;;;;30.70;22.10;;;-1.00;99.90;;;;;;5015333;28;20439;-79
2023/12/01 01:31:44;;;;;;;23.43;18.03;;;-0.90;99.90;;;;;;5029790;28;20861;-78
2023/12/01 01:34:12;;;;;;;27.47;20.03;;;-1.00;99.90;;;;;;5013741;28;20455;-78
2023/12/01 01:36:44;;;;;;;29.37;19.10;;;-1.00;99.90;;;;;;5013800;28;20451;-78
2023/12/01 01:39:13;;;;;;;25.80;18.90;;;-1.00;99.90;;;;;;5018432;28;20456;-78
2023/12/01 01:41:42;;;;;;;26.43;19.00;;;-1.00;99.90;;;;;;5016674;28;20447;-78
2023/12/01 01:44:10;;;;;;;27.97;19.93;;;-1.00;99.90;;;;;;5016915;28;20456;-78
2023/12/01 01:46:40;;;;;;;24.80;18.83;;;-1.10;99.90;;;;;;5033454;28;20459;-78
2023/12/01 01:49:10;;;;;;;22.00;17.33;;;-1.00;99.90;;;;;;5033284;28;20455;-78
2023/12/01 01:51:40;;;;;;;25.07;18.13;;;-1.10;99.90;;;;;;5016740;28;20439;-78
2023/12/01 01:54:09;;;;;;;24.10;18.30;;;-1.10;99.90;;;;;;5033332;28;20454;-78
2023/12/01 01:56:39;;;;;;;23.57;16.67;;;-1.00;99.90;;;;;;5032829;28;20459;-78
2023/12/01 01:59:07;;;;;;;22.73;15.90;;;-1.10;99.90;;;;;;5032851;28;20474;-78
2023/12/01 02:01:39;;;;;;;22.00;15.33;;;-1.10;99.90;;;;;;5016432;28;20451;-78
2023/12/01 02:04:10;;;;;;;23.20;15.90;;;-1.20;99.90;;;;;;5033033;28;20452;-78
2023/12/01 02:06:39;;;;;;;21.83;16.10;;;-1.20;99.90;;;;;;5016851;28;20476;-78
2023/12/01 02:09:08;;;;;;;22.40;17.00;;;-1.20;99.90;;;;;;5017069;28;20448;-78
2023/12/01 02:11:37;;;;;;;21.70;16.70;;;-1.20;99.90;;;;;;5032733;28;20452;-78
2023/12/01 02:14:06;;;;;;;29.63;19.70;;;-1.20;99.90;;;;;;5016448;28;20447;-78
2023/12/01 02:16:34;;;;;;;24.90;17.17;;;-1.20;99.90;;;;;;5016185;28;20448;-78
2023/12/01 02:19:02;;;;;;;25.37;18.80;;;-1.20;99.90;;;;;;5032429;28;20475;-78
2023/12/01 02:21:36;;;;;;;25.33;19.80;;;-1.20;99.90;;;;;;5016305;28;20475;-79
2023/12/01 02:24:06;;;;;;;27.10;19.30;;;-1.20;99.90;;;;;;5017488;28;20424;-78
2023/12/01 02:26:37;;;;;;;25.33;18.23;;;-1.20;99.90;;;;;;5017301;28;20503;-78
2023/12/01 02:29:06;;;;;;;28.80;20.37;;;-1.20;99.90;;;;;;5032589;28;20498;-78
2023/12/01 02:31:36;;;;;;;28.50;21.10;;;-1.20;99.90;;;;;;5015931;28;20514;-78
2023/12/01 02:34:05;;;;;;;29.90;20.97;;;-1.10;99.90;;;;;;5032333;28;20448;-78
2023/12/01 02:36:36;;;;;;;26.53;21.23;;;-1.10;99.90;;;;;;5033493;28;20526;-78
2023/12/01 02:39:07;;;;;;;28.07;18.97;;;-1.10;99.90;;;;;;5033912;28;20472;-80
2023/12/01 02:41:35;;;;;;;29.40;20.63;;;-1.10;99.90;;;;;;5018040;28;20432;-78
2023/12/01 02:44:04;;;;;;;32.20;20.23;;;-1.10;99.90;;;;;;5016619;28;20487;-78
2023/12/01 02:46:33;;;;;;;30.23;21.10;;;-1.10;99.90;;;;;;5016155;28;20447;-78
2023/12/01 02:49:01;;;;;;;27.30;19.33;;;-1.10;99.90;;;;;;5031590;28;20494;-78
2023/12/01 02:51:30;;;;;;;26.63;19.60;;;-1.10;99.90;;;;;;5015843;28;20563;-78
2023/12/01 02:53:59;;;;;;;28.07;20.07;;;-1.20;99.90;;;;;;5016015;28;20506;-78
2023/12/01 02:56:28;;;;;;;30.30;21.43;;;-1.20;99.90;;;;;;5016436;28;20487;-78
2023/12/01 02:58:56;;;;;;;33.13;22.73;;;-1.10;99.90;;;;;;5015844;28;20447;-78
2023/12/01 03:01:25;;;;;;;28.83;20.50;;;-1.10;99.90;;;;;;5016193;28;20487;-78
2023/12/01 03:03:53;;;;;;;31.23;22.10;;;-1.10;99.90;;;;;;5015633;28;20490;-78
2023/12/01 03:06:21;;;;;;;30.40;22.27;;;-1.10;99.90;;;;;;5032337;28;20529;-78
2023/12/01 03:08:50;;;;;;;29.80;21.33;;;-1.10;99.90;;;;;;5032206;28;20448;-79
2023/12/01 03:11:25;;;;;;;32.30;22.70;;;-1.10;99.90;;;;;;5031885;28;20587;-78
2023/12/01 03:13:53;;;;;;;31.50;21.90;;;-1.10;99.90;;;;;;5015719;28;20582;-78
2023/12/01 03:16:21;;;;;;;32.40;22.50;;;-1.10;99.90;;;;;;5015709;28;20444;-78
2023/12/01 03:18:50;;;;;;;32.20;23.30;;;-1.10;99.90;;;;;;5032842;28;20843;-78
2023/12/01 03:21:18;;;;;;;30.57;23.63;;;-1.10;99.90;;;;;;5016104;28;20838;-78
2023/12/01 03:23:48;;;;;;;30.83;22.30;;;-1.20;99.90;;;;;;5017423;28;20979;-78
2023/12/01 03:26:18;;;;;;;33.23;22.27;;;-1.20;99.90;;;;;;5032184;28;20460;-78
2023/12/01 03:28:48;;;;;;;33.97;22.83;;;-1.20;99.90;;;;;;5032630;28;20957;-78
2023/12/01 03:31:19;;;;;;;32.00;23.00;;;-1.20;99.90;;;;;;5015959;28;20448;-78
2023/12/01 03:33:47;;;;;;;35.90;23.87;;;-1.20;99.90;;;;;;5016016;28;20499;-78
2023/12/01 03:36:16;;;;;;;31.47;23.57;;;-1.30;99.90;;;;;;5017038;28;20476;-78
2023/12/01 03:38:44;;;;;;;31.87;23.10;;;-1.30;99.90;;;;;;5031728;28;20443;-78
2023/12/01 03:41:12;;;;;;;36.07;24.50;;;-1.40;99.90;;;;;;5015665;28;20472;-78
2023/12/01 03:43:41;;;;;;;36.20;24.67;;;-1.40;99.90;;;;;;5015855;28;20502;-78
2023/12/01 03:46:10;;;;;;;35.77;23.17;;;-1.40;99.90;;;;;;5031756;28;20447;-78
2023/12/01 03:48:39;;;;;;;35.07;24.10;;;-1.40;99.90;;;;;;5016146;28;20451;-78
2023/12/01 03:51:09;;;;;;;31.90;22.40;;;-1.40;99.90;;;;;;5014864;28;20534;-79
2023/12/01 03:53:38;;;;;;;34.07;23.03;;;-1.40;99.90;;;;;;5016926;28;20509;-79
2023/12/01 03:56:08;;;;;;;30.33;20.67;;;-1.40;99.90;;;;;;5015811;28;20448;-79
2023/12/01 03:58:37;;;;;;;37.40;23.67;;;-1.50;99.90;;;;;;5014373;28;20490;-78
2023/12/01 04:01:05;;;;;;;32.13;23.73;;;-1.50;99.90;;;;;;5014779;28;20992;-78
2023/12/01 04:03:35;;;;;;;32.30;23.00;;;-1.60;99.90;;;;;;5014818;28;20563;-78
2023/12/01 04:06:05;;;;;;;34.37;23.97;;;-1.60;99.90;;;;;;5031549;28;20456;-79
2023/12/01 04:08:34;;;;;;;33.27;23.90;;;-1.60;99.90;;;;;;5030806;28;20475;-77
2023/12/01 04:11:03;;;;;;;33.57;23.30;;;-1.70;99.90;;;;;;5014037;28;20449;-77
2023/12/01 04:13:31;;;;;;;35.70;23.33;;;-1.70;99.90;;;;;;5015520;28;20854;-79
2023/12/01 04:16:00;;;;;;;34.30;24.73;;;-1.70;99.90;;;;;;5014407;28;20451;-79
2023/12/01 04:18:28;;;;;;;33.27;22.50;;;-1.70;99.90;;;;;;5014785;28;20440;-78
2023/12/01 04:20:58;;;;;;;41.30;28.20;;;-1.70;99.90;;;;;;5031558;28;20463;-78
2023/12/01 04:23:27;;;;;;;37.13;25.83;;;-1.70;99.90;;;;;;5030676;28;20478;-78
2023/12/01 04:25:55;;;;;;;37.57;26.37;;;-1.70;99.90;;;;;;5030258;28;20452;-78
2023/12/01 04:28:24;;;;;;;38.43;25.47;;;-1.70;99.90;;;;;;5030599;28;20452;-78
2023/12/01 04:30:52;;;;;;;40.80;25.90;;;-1.70;99.90;;;;;;5030958;28;20500;-78
2023/12/01 04:33:23;;;;;;;38.20;24.73;;;-1.70;99.90;;;;;;5014071;28;21027;-78
2023/12/01 04:35:51;;;;;;;36.20;24.50;;;-1.70;99.90;;;;;;5014528;28;20460;-77
2023/12/01 04:38:21;;;;;;;37.07;25.57;;;-1.70;99.90;;;;;;5030264;28;20818;-78
2023/12/01 04:40:50;;;;;;;36.80;24.00;;;-1.70;99.90;;;;;;5013634;28;20499;-78
2023/12/01 04:43:18;;;;;;;38.03;25.10;;;-1.70;99.90;;;;;;5014121;28;20481;-78
2023/12/01 04:45:47;;;;;;;38.47;24.33;;;-1.70;99.90;;;;;;5030300;28;20460;-78
2023/12/01 04:48:15;;;;;;;40.80;27.87;;;-1.70;99.90;;;;;;5013603;28;20805;-78
2023/12/01 04:50:47;;;;;;;39.10;25.90;;;-1.70;99.90;;;;;;5015803;28;20531;-78
2023/12/01 04:53:16;;;;;;;37.23;26.57;;;-1.70;99.90;;;;;;5014025;28;20508;-79
2023/12/01 04:55:47;;;;;;;40.57;26.70;;;-1.70;99.90;;;;;;5013208;28;20471;-78
2023/12/01 04:58:15;;;;;;;37.50;25.40;;;-1.70;99.90;;;;;;5015129;28;20428;-78
2023/12/01 05:00:44;;;;;;;38.20;27.40;;;-1.70;99.90;;;;;;5013742;28;21016;-78
2023/12/01 05:03:12;;;;;;;36.13;25.73;;;-1.80;99.90;;;;;;5013581;28;20845;-78
2023/12/01 05:05:41;;;;;;;38.23;26.10;;;-1.80;99.90;;;;;;5013376;28;20865;-78
2023/12/01 05:08:10;;;;;;;36.93;25.20;;;-1.80;99.90;;;;;;5029941;28;20455;-77
2023/12/01 05:10:44;;;;;;;39.60;27.13;;;-1.90;99.90;;;;;;5013665;28;20891;-77
2023/12/01 05:13:14;;;;;;;40.10;26.37;;;-1.90;99.90;;;;;;5032205;28;20814;-79
2023/12/01 05:15:43;;;;;;;39.83;26.70;;;-2.00;99.90;;;;;;5033501;28;20440;-77
2023/12/01 05:18:11;;;;;;;41.10;26.13;;;-2.00;99.90;;;;;;5017441;28;20454;-78
2023/12/01 05:20:40;;;;;;;38.80;27.53;;;-2.00;99.90;;;;;;5018253;28;20550;-78
2023/12/01 05:23:09;;;;;;;39.70;27.07;;;-2.00;99.90;;;;;;5019032;28;20498;-78
2023/12/01 05:25:41;;;;;;;40.43;27.30;;;-2.00;99.90;;;;;;5016512;28;20476;-78
2023/12/01 05:28:11;;;;;;;40.80;26.40;;;-2.10;99.90;;;;;;5033155;28;20844;-78
2023/12/01 05:30:43;;;;;;;39.00;25.47;;;-2.10;99.90;;;;;;5016280;28;20468;-78
2023/12/01 05:33:12;;;;;;;38.93;25.77;;;-2.10;99.90;;;;;;5033791;28;20476;-78
2023/12/01 05:35:42;;;;;;;39.97;27.60;;;-2.10;99.90;;;;;;5017580;28;20555;-78
2023/12/01 05:38:11;;;;;;;42.50;27.60;;;-2.10;99.90;;;;;;5017441;28;20444;-78
2023/12/01 05:40:39;;;;;;;40.83;27.73;;;-2.10;99.90;;;;;;5017194;28;20471;-78
2023/12/01 05:43:08;;;;;;;39.67;26.80;;;-2.10;99.90;;;;;;5016925;28;20471;-78
2023/12/01 05:45:37;;;;;;;41.57;27.40;;;-2.10;99.90;;;;;;5017094;28;20448;-78
2023/12/01 05:48:07;;;;;;;36.17;25.03;;;-2.20;99.90;;;;;;5016822;28;20447;-78
2023/12/01 05:50:38;;;;;;;39.13;27.07;;;-2.20;99.90;;;;;;5032472;28;20976;-77
2023/12/01 05:53:07;;;;;;;39.67;25.77;;;-2.20;99.90;;;;;;5017613;28;20456;-77
2023/12/01 05:55:36;;;;;;;41.03;27.50;;;-2.10;99.90;;;;;;5033103;28;20466;-78
2023/12/01 05:58:09;;;;;;;36.93;24.83;;;-2.20;99.90;;;;;;5034750;28;20443;-78
2023/12/01 06:00:38;;;;;;;39.87;26.63;;;-2.20;99.90;;;;;;5017317;28;20436;-77
2023/12/01 06:03:09;;;;;;;37.87;25.03;;;-2.30;99.90;;;;;;5032715;28;20511;-78
2023/12/01 06:05:39;;;;;;;38.83;26.43;;;-2.20;99.90;;;;;;5016199;28;20896;-78
2023/12/01 06:08:09;;;;;;;41.77;26.43;;;-2.30;99.90;;;;;;5015470;28;20453;-78
2023/12/01 06:10:38;;;;;;;41.40;27.67;;;-2.30;99.90;;;;;;5032999;28;20812;-77
2023/12/01 06:13:06;;;;;;;41.40;28.40;;;-2.30;99.90;;;;;;5016331;28;20459;-78
2023/12/01 06:15:35;;;;;;;42.97;26.83;;;-2.30;99.90;;;;;;5015861;28;20546;-78
2023/12/01 06:18:05;;;;;;;39.10;26.70;;;-2.40;99.90;;;;;;5032611;28;20451;-78
2023/12/01 06:20:37;;;;;;;41.57;27.70;;;-2.40;99.90;;;;;;5032222;28;20451;-77
2023/12/01 06:23:08;;;;;;;45.10;28.07;;;-2.40;99.90;;;;;;5014203;28;20562;-77
2023/12/01 06:25:41;;;;;;;42.90;27.10;;;-2.40;99.90;;;;;;5030884;28;20448;-77
2023/12/01 06:28:10;;;;;;;41.77;28.97;;;-2.50;99.90;;;;;;5032568;28;20444;-77
2023/12/01 06:30:40;;;;;;;41.80;27.13;;;-2.50;99.90;;;;;;5017210;28;20785;-77
2023/12/01 06:33:09;;;;;;;41.30;26.20;;;-2.50;99.90;;;;;;5015360;28;20471;-77
2023/12/01 06:35:39;;;;;;;45.10;28.03;;;-2.50;99.90;;;;;;5015694;28;20510;-78
2023/12/01 06:38:07;;;;;;;41.53;27.67;;;-2.60;99.90;;;;;;5015582;28;20816;-78
2023/12/01 06:40:36;;;;;;;38.23;27.43;;;-2.60;99.90;;;;;;5014917;28;20490;-78
2023/12/01 06:43:09;;;;;;;43.03;28.93;;;-2.60;99.90;;;;;;5031570;28;20993;-78
2023/12/01 06:45:41;;;;;;;30.87;20.47;;;-2.60;99.90;;;;;;5016056;28;20419;-79
2023/12/01 06:48:10;;;;;;;43.70;28.40;;;-2.70;99.90;;;;;;5014975;28;20448;-79
2023/12/01 06:50:40;;;;;;;43.40;29.53;;;-2.70;99.90;;;;;;5014744;28;20474;-79
2023/12/01 06:53:10;;;;;;;41.50;28.27;;;-2.70;99.90;;;;;;5031301;28;20892;-79
2023/12/01 06:55:39;;;;;;;41.50;27.60;;;-2.70;99.90;;;;;;5014715;28;20945;-79
2023/12/01 06:58:09;;;;;;;42.70;28.63;;;-2.70;99.90;;;;;;5030949;28;20451;-79
2023/12/01 07:00:38;;;;;;;42.57;27.53;;;-2.70;99.90;;;;;;5014492;28;20444;-79
2023/12/01 07:03:08;;;;;;;42.00;28.57;;;-2.70;99.90;;;;;;5030791;28;20479;-79
2023/12/01 07:05:40;;;;;;;44.00;29.13;;;-2.40;99.90;;;;;;5031124;28;20448;-79
2023/12/01 07:08:12;;;;;;;43.20;29.40;;;-2.70;99.90;;;;;;5014258;28;20514;-79
2023/12/01 07:10:43;;;;;;;39.60;26.30;;;-2.80;99.90;;;;;;5030704;28;20440;-79
2023/12/01 07:13:11;;;;;;;47.87;30.30;;;-2.80;99.90;;;;;;5030335;28;20822;-79
2023/12/01 07:15:40;;;;;;;42.73;28.50;;;-2.80;99.90;;;;;;5030601;28;20818;-79
2023/12/01 07:18:10;;;;;;;42.70;28.60;;;-2.80;99.90;;;;;;5014041;28;20827;-79
2023/12/01 07:20:41;;;;;;;41.40;29.23;;;-2.80;99.90;;;;;;5030357;28;20502;-79
2023/12/01 07:23:09;;;;;;;45.77;29.30;;;-2.90;99.90;;;;;;5015406;28;20847;-79
2023/12/01 07:25:38;;;;;;;44.10;29.00;;;-2.80;99.90;;;;;;5013797;28;20448;-79
2023/12/01 07:28:09;;;;;;;43.73;28.60;;;-2.80;99.90;;;;;;5014995;28;20866;-79
2023/12/01 07:30:40;;;;;;;45.30;28.93;;;-2.70;99.90;;;;;;5015397;28;20424;-79
2023/12/01 07:33:09;;;;;;;40.83;27.90;;;-2.90;99.90;;;;;;5030144;28;20476;-79
2023/12/01 07:35:40;;;;;;;46.40;30.43;;;-2.80;99.90;;;;;;5013168;28;20440;-79
2023/12/01 07:38:08;;;;;;;41.63;26.80;;;-3.00;99.90;;;;;;5030043;28;20957;-79
2023/12/01 07:40:36;;;;;;;43.93;28.90;;;-3.00;99.90;;;;;;5015334;28;20490;-79
2023/12/01 07:43:06;;;;;;;45.83;28.60;;;-3.00;99.90;;;;;;5014110;28;20490;-79
2023/12/01 07:45:35;;;;;;;40.60;27.50;;;-3.00;99.90;;;;;;5013960;28;20451;-79
2023/12/01 07:48:04;;;;;;;42.30;29.53;;;-3.00;99.90;;;;;;5013702;28;21003;-79
2023/12/01 07:50:33;;;;;;;43.07;28.97;;;-3.00;99.90;;;;;;5029982;28;20451;-79
2023/12/01 07:53:04;;;;;;;46.50;31.23;;;-3.00;99.90;;;;;;5029664;28;20472;-79
2023/12/01 07:55:34;;;;;;;44.60;31.00;;;-2.80;99.90;;;;;;5013474;28;20466;-79
2023/12/01 07:58:02;;;;;;;49.97;31.83;;;-2.90;99.90;;;;;;5029884;28;20443;-79
2023/12/01 08:00:31;;;;;;;50.87;31.73;;;-2.90;99.90;;;;;;5013441;28;20579;-79
2023/12/01 08:06:03;;;;;;;53.97;32.70;;;-2.80;99.90;;;;;;6117478;22;21211;-78
2023/12/01 08:08:33;;;;;;;51.80;34.00;;;-2.80;99.90;;;;;;5012833;28;20466;-79
2023/12/01 08:11:07;;;;;;;48.37;31.27;;;-2.80;99.90;;;;;;5013689;28;20810;-79
2023/12/01 08:13:36;;;;;;;49.07;31.60;;;-2.90;99.90;;;;;;5013625;28;20474;-79
2023/12/01 08:16:05;;;;;;;47.53;32.37;;;-2.70;99.90;;;;;;5013412;28;20478;-79
2023/12/01 08:18:45;;;;;;;53.53;32.97;;;-2.70;99.90;;;;;;5013661;28;20452;-79
2023/12/01 08:21:16;;;;;;;49.37;32.00;;;-2.70;99.90;;;;;;5013686;28;20450;-79
2023/12/01 08:23:49;;;;;;;52.70;32.40;;;-2.60;99.90;;;;;;5013813;28;20472;-79
2023/12/01 08:26:17;;;;;;;50.07;31.47;;;-2.60;99.90;;;;;;5013686;28;20447;-79
2023/12/01 08:28:46;;;;;;;48.30;33.90;;;-2.60;99.90;;;;;;5013440;28;20459;-79
2023/12/01 08:31:14;;;;;;;49.97;35.47;;;-2.50;99.90;;;;;;5015087;28;20440;-79
2023/12/01 08:33:43;;;;;;;46.60;32.30;;;-2.50;99.90;;;;;;5013428;28;20478;-80
2023/12/01 08:36:12;;;;;;;48.30;31.50;;;-2.40;99.90;;;;;;5014822;28;20460;-80
2023/12/01 08:38:46;;;;;;;45.30;29.90;;;-2.40;99.90;;;;;;5013382;28;20494;-80
2023/12/01 08:41:15;;;;;;;44.63;30.33;;;-2.10;99.90;;;;;;5013533;28;20453;-80
2023/12/01 08:43:43;;;;;;;47.57;31.97;;;-2.30;99.90;;;;;;5014708;28;20494;-80
2023/12/01 08:46:12;;;;;;;47.60;30.03;;;-2.30;99.90;;;;;;5013683;28;20448;-80
2023/12/01 08:48:40;;;;;;;45.53;30.27;;;-2.20;99.90;;;;;;5017335;28;20903;-80
2023/12/01 08:51:10;;;;;;;44.33;31.77;;;-2.20;99.90;;;;;;5018022;28;20443;-80
2023/12/01 08:53:38;;;;;;;44.57;30.00;;;-2.20;99.90;;;;;;5018393;28;20522;-80
2023/12/01 08:56:09;;;;;;;43.80;28.37;;;-2.20;99.90;;;;;;5024161;28;20447;-80
2023/12/01 08:58:38;;;;;;;48.90;32.97;;;-2.10;99.90;;;;;;5026055;28;20945;-80
2023/12/01 09:01:08;;;;;;;41.83;29.33;;;-1.90;99.90;;;;;;5026866;28;20444;-80
2023/12/01 09:03:36;;;;;;;43.73;27.83;;;-2.00;99.90;;;;;;5026812;28;20872;-81
2023/12/01 09:06:05;;;;;;;44.93;29.10;;;-2.00;99.90;;;;;;5027574;28;20515;-80
2023/12/01 09:08:34;;;;;;;42.30;29.30;;;-2.00;99.90;;;;;;5027594;28;20440;-80
2023/12/01 09:11:02;;;;;;;44.43;30.33;;;-1.90;99.90;;;;;;5027783;28;20448;-80
2023/12/01 09:13:34;;;;;;;43.20;30.40;;;-1.90;99.90;;;;;;5026919;28;20468;-80
2023/12/01 09:16:03;;;;;;;42.63;28.90;;;-1.80;99.90;;;;;;5024165;28;20490;-80
2023/12/01 09:18:32;;;;;;;43.60;30.10;;;-1.80;99.90;;;;;;5023893;28;20571;-80
2023/12/01 09:21:00;;;;;;;44.33;29.30;;;-1.80;99.90;;;;;;5024038;28;20439;-81
2023/12/01 09:23:29;;;;;;;48.53;32.33;;;-1.80;99.90;;;;;;5023526;28;20522;-80
2023/12/01 09:25:58;;;;;;;43.17;28.70;;;-1.70;99.90;;;;;;5022602;28;20490;-81
2023/12/01 09:28:26;;;;;;;43.93;30.67;;;-1.70;99.90;;;;;;5021592;28;20462;-81
2023/12/01 09:30:57;;;;;;;44.10;29.20;;;-1.70;99.90;;;;;;5022676;28;20447;-82
2023/12/01 09:33:26;;;;;;;41.27;27.67;;;-1.60;99.90;;;;;;5021669;28;20468;-82
2023/12/01 09:35:55;;;;;;;41.73;28.77;;;-1.60;99.90;;;;;;5021068;28;20863;-81
2023/12/01 09:38:27;;;;;;;43.07;30.00;;;-1.60;99.90;;;;;;5020221;28;20448;-81
2023/12/01 09:40:56;;;;;;;40.77;29.50;;;-1.50;99.90;;;;;;5021608;28;20439;-81
2023/12/01 09:43:25;;;;;;;39.23;27.63;;;-1.50;99.90;;;;;;5019568;28;20471;-81
2023/12/01 09:45:54;;;;;;;41.63;29.40;;;-1.40;99.90;;;;;;5019504;28;20475;-81
2023/12/01 09:48:24;;;;;;;39.97;28.33;;;-1.40;99.90;;;;;;5018855;28;20509;-83
2023/12/01 09:50:52;;;;;;;43.30;29.43;;;-1.40;99.90;;;;;;5018600;28;20523;-81
2023/12/01 09:53:21;;;;;;;43.23;28.47;;;-1.40;99.90;;;;;;5018948;28;20530;-82
2023/12/01 09:55:50;;;;;;;45.20;31.47;;;-1.40;99.90;;;;;;5018687;28;20498;-82
2023/12/01 09:58:19;;;;;;;41.80;27.13;;;-1.50;99.90;;;;;;5017959;28;20510;-82
2023/12/01 10:00:48;;;;;;;38.00;25.87;;;-1.40;99.90;;;;;;5018495;28;20483;-82
2023/12/01 10:03:16;;;;;;;37.93;26.80;;;-1.40;99.90;;;;;;5018794;28;20482;-82
2023/12/01 10:05:46;;;;;;;40.40;27.53;;;-1.30;99.90;;;;;;5018108;28;21057;-82
2023/12/01 10:08:17;;;;;;;38.10;27.77;;;-1.30;99.90;;;;;;5019353;28;20527;-82
2023/12/01 10:10:46;;;;;;;37.23;27.60;;;-1.30;99.90;;;;;;5019069;28;20539;-81
2023/12/01 10:13:17;;;;;;;36.70;26.10;;;-1.30;99.90;;;;;;5017688;28;20463;-81
2023/12/01 10:15:49;;;;;;;41.17;27.60;;;-1.20;99.90;;;;;;5018447;28;20452;-81
2023/12/01 10:18:23;;;;;;;41.63;27.97;;;-1.20;99.90;;;;;;5017605;28;20459;-82
2023/12/01 10:21:02;;;;;;;39.57;28.80;;;-1.10;99.90;;;;;;5017396;28;20440;-81
2023/12/01 10:23:33;;;;;;;40.10;27.40;;;-1.10;99.90;;;;;;5017387;28;20482;-81
2023/12/01 10:26:03;;;;;;;46.43;29.90;;;-1.00;99.90;;;;;;5017203;28;20467;-81
2023/12/01 10:28:40;;;;;;;39.50;29.27;;;-1.00;99.90;;;;;;5017225;28;20929;-82
2023/12/01 10:31:09;;;;;;;39.57;29.33;;;-0.90;99.90;;;;;;5017247;28;20439;-82
2023/12/01 10:33:39;;;;;;;42.73;29.03;;;-0.90;99.90;;;;;;5018967;28;20476;-83
2023/12/01 10:36:11;;;;;;;43.10;29.40;;;-0.90;99.90;;;;;;5017642;28;20487;-82
2023/12/01 10:38:40;;;;;;;41.27;27.43;;;-0.90;99.90;;;;;;5018176;28;20476;-82
2023/12/01 10:41:09;;;;;;;38.23;29.40;;;-0.90;99.90;;;;;;5019775;28;20450;-82
2023/12/01 10:43:43;;;;;;;37.50;27.80;;;-0.80;99.90;;;;;;5019740;28;20563;-82
2023/12/01 10:46:14;;;;;;;38.73;26.73;;;-0.90;99.90;;;;;;5019294;28;20451;-81
2023/12/01 10:48:44;;;;;;;39.13;28.27;;;-0.90;99.90;;;;;;5019973;28;20539;-83
2023/12/01 10:51:16;;;;;;;42.20;28.70;;;-0.80;99.90;;;;;;5018201;28;20458;-82
2023/12/01 10:53:45;;;;;;;40.17;27.13;;;-0.70;99.90;;;;;;5018877;28;20472;-82
2023/12/01 10:56:18;;;;;;;43.83;29.63;;;-0.80;99.90;;;;;;5026830;28;20458;-82
2023/12/01 10:58:52;;;;;;;46.50;31.13;;;-0.80;99.90;;;;;;5026156;28;20432;-81
2023/12/01 11:01:22;;;;;;;45.27;30.10;;;-0.80;99.90;;;;;;5025575;28;20443;-81
2023/12/01 11:03:53;;;;;;;46.73;31.50;;;-0.80;99.90;;;;;;5025320;28;20547;-81
2023/12/01 11:06:31;;;;;;;46.60;30.33;;;-0.80;99.90;;;;;;5026594;28;20456;-82
2023/12/01 11:09:11;;;;;;;41.63;28.70;;;-0.80;99.90;;;;;;5025501;28;20807;-82
2023/12/01 11:11:52;;;;;;;44.60;31.60;;;-0.80;99.90;;;;;;5024730;28;20475;-82
2023/12/01 11:14:26;;;;;;;47.57;32.50;;;-0.80;99.90;;;;;;5026580;28;20423;-83
2023/12/01 11:16:55;;;;;;;48.40;32.50;;;-0.80;99.90;;;;;;5026753;28;20453;-82
2023/12/01 11:19:24;;;;;;;42.80;30.13;;;-0.80;99.90;;;;;;5025949;28;20448;-82
2023/12/01 11:21:58;;;;;;;46.77;31.10;;;-0.80;99.90;;;;;;5025202;28;20467;-82
2023/12/01 11:24:31;;;;;;;51.07;33.77;;;-0.80;99.90;;;;;;5027195;28;20468;-83
2023/12/01 11:27:03;;;;;;;50.43;30.23;;;-0.90;99.90;;;;;;5027409;28;20436;-83
2023/12/01 11:29:34;;;;;;;46.40;30.07;;;-0.80;99.90;;;;;;5025323;28;20447;-82
2023/12/01 11:32:04;;;;;;;43.70;29.27;;;-0.80;99.90;;;;;;5025068;28;20471;-82
2023/12/01 11:34:33;;;;;;;52.90;32.20;;;-0.80;99.90;;;;;;5024100;28;20448;-82
2023/12/01 11:37:06;;;;;;;50.50;31.30;;;-0.80;99.90;;;;;;5025675;28;20432;-82
2023/12/01 11:39:34;;;;;;;47.40;29.03;;;-0.80;99.90;;;;;;5025832;28;20486;-82
2023/12/01 11:42:16;;;;;;;48.97;31.93;;;-0.80;99.90;;;;;;5023947;28;20467;-82
2023/12/01 11:44:51;;;;;;;53.73;31.73;;;-0.80;99.90;;;;;;5024488;28;20464;-83
2023/12/01 11:47:20;;;;;;;52.03;30.20;;;-0.80;99.90;;;;;;5024442;28;20436;-81
2023/12/01 11:49:49;;;;;;;55.17;33.13;;;-0.80;99.90;;;;;;5023357;28;20539;-81
2023/12/01 11:52:20;;;;;;;49.97;31.40;;;-0.80;99.90;;;;;;5025513;28;20494;-81
2023/12/01 11:54:50;;;;;;;51.50;31.73;;;-0.80;99.90;;;;;;5023214;28;20814;-82
2023/12/01 11:57:20;;;;;;;52.90;31.13;;;-0.80;99.90;;;;;;5023778;28;21031;-81
2023/12/01 11:59:49;;;;;;;49.73;32.10;;;-0.80;99.90;;;;;;5025372;28;20432;-81
2023/12/01 12:02:29;;;;;;;55.47;33.30;;;-0.70;99.90;;;;;;5023679;28;20472;-81
2023/12/01 12:05:00;;;;;;;50.40;29.53;;;-0.70;99.90;;;;;;5023278;28;20517;-83
2023/12/01 12:07:32;;;;;;;46.53;30.57;;;-0.70;99.90;;;;;;5023368;28;20451;-80
2023/12/01 12:10:01;;;;;;;55.60;31.23;;;-0.70;99.90;;;;;;5023103;28;20803;-83
2023/12/01 12:12:30;;;;;;;46.73;31.00;;;-0.70;99.90;;;;;;5023820;28;20506;-81
2023/12/01 12:15:06;;;;;;;47.03;29.47;;;-0.70;99.90;;;;;;5025208;28;20436;-84
2023/12/01 12:17:37;;;;;;;42.40;27.47;;;-0.60;99.90;;;;;;5024896;28;20494;-82
2023/12/01 12:20:09;;;;;;;52.00;30.83;;;-0.60;99.90;;;;;;5024617;28;20448;-82
2023/12/01 12:22:45;;;;;;;42.00;26.77;;;-0.60;99.90;;;;;;5023474;28;21021;-81
2023/12/01 12:25:13;;;;;;;39.73;25.60;;;-0.60;99.90;;;;;;5025142;28;20859;-81
2023/12/01 12:27:43;;;;;;;39.93;25.13;;;-0.60;99.90;;;;;;5020296;28;20459;-81
2023/12/01 12:30:12;;;;;;;46.27;26.87;;;-0.60;99.90;;;;;;5017415;28;20506;-82
2023/12/01 12:32:41;;;;;;;43.93;28.07;;;-0.60;99.90;;;;;;5019564;28;20498;-81
2023/12/01 12:35:13;;;;;;;42.03;26.20;;;-0.60;99.90;;;;;;5022981;28;20501;-83
2023/12/01 12:37:42;;;;;;;36.67;23.70;;;-0.50;99.90;;;;;;5022592;28;20451;-83
2023/12/01 12:40:15;;;;;;;41.10;27.80;;;-0.50;99.90;;;;;;5022118;28;20444;-81
2023/12/01 12:42:55;;;;;;;44.53;28.23;;;-0.50;99.90;;;;;;5023768;28;20490;-82
2023/12/01 12:45:23;;;;;;;46.70;28.87;;;-0.50;99.90;;;;;;5028373;28;20455;-82